Aviation Digital Data Service (ADDS)

Output produced by METARs form (0303 UTC 27 January 2022)
found at http://aviationweather.gov/metar/data/
 
METAR text: KEZF 270255Z AUTO 00000KT 10SM CLR M05/M11 A3046 RMK AO2 T10521110
Conditions at: KEZF (FREDERICKSB/SHAN, VA, US) observed 0255 UTC 27 January 2022
Temperature: -5.2°C (23°F)
Dewpoint: -11.0°C (12°F) [RH = 64%]
Pressure (altimeter): 30.46 inches Hg (1031.6 mb)
Winds: calm
Visibility: 10 or more miles (16+ km)
Ceiling: at least 12,000 feet AGL
Clouds: sky clear below 12,000 feet AGL
Weather: automated observation with no human augmentation;
there may or may not be significant weather present at this time